Terminal Aerodrome Forecast
Issued by NWS

Home | Current Version | Previous Version | Text Only | Print | Product List | Glossary On
Versions: 1 2 3 4 5 6 7 8 9 10 11 12 13 14 15 16 17 18 19
000
FTUS43 KBIS 290521
TAFDIK
TAF
KDIK 290521Z 2906/3006 26012KT P6SM FEW070
     FM291100 27015KT P6SM SKC
     FM291500 29022G35KT P6SM FEW060
     FM292100 29018G25KT P6SM FEW060
     FM300100 28006KT P6SM SKC=

USA.gov is the U.S. government's official web portal to all federal, state and local government web resources and services.